Time;durP1;ratioP1;P1;durP2;ratioP2;P2;SDS_P1;SDS_P2;PMS_P1;PMS_P2;Temp;Humidity;BMP_temperature;BMP_pressure;BME280_temperature;BME280_humidity;BME280_pressure;Samples;Min_cycle;Max_cycle;Signal;HPM_P1;HPM_P2
2022/10/03 00:00:06;;;;;;;12.73;3.78;;;;;;;-148.88;100.00;76632.47;4974920;28;20030;-85
2022/10/03 00:02:50;;;;;;;12.50;3.38;;;;;;;-148.88;100.00;76626.38;4975052;28;20026;-85
2022/10/03 00:05:21;;;;;;;;;;;;;;;-148.88;100.00;76636.53;4986319;28;20022;-85
2022/10/03 00:07:58;;;;;;;12.18;2.95;;;;;;;-148.88;100.00;76630.44;4981649;28;20361;-86
2022/10/03 00:10:55;;;;;;;19.98;3.95;;;;;;;-148.88;100.00;76638.56;4981033;28;20042;-86
2022/10/03 00:13:39;;;;;;;13.63;3.60;;;;;;;-148.88;100.00;76650.75;4979427;28;20075;-85
2022/10/03 00:16:22;;;;;;;14.32;3.17;;;;;;;-148.88;100.00;76644.66;4980453;28;20073;-84
2022/10/03 00:19:12;;;;;;;18.08;3.35;;;;;;;-148.88;100.00;76658.88;4980481;28;20015;-85
2022/10/03 00:21:59;;;;;;;15.55;3.38;;;;;;;-148.88;100.00;76658.88;4976417;28;20038;-86
2022/10/03 00:24:46;;;;;;;14.80;3.40;;;;;;;-148.88;100.00;76664.97;4976297;28;20621;-86
2022/10/03 00:27:25;;;;;;;14.07;3.45;;;;;;;-148.88;100.00;76662.94;4976905;28;20031;-85
2022/10/03 00:30:01;;;;;;;15.90;3.75;;;;;;;-148.88;100.00;76658.88;4976497;28;20100;-85
2022/10/03 00:32:40;;;;;;;17.80;3.95;;;;;;;-148.88;100.00;76667.00;4976658;28;20023;-85
2022/10/03 00:35:19;;;;;;;18.17;3.53;;;;;;;-148.88;100.00;76664.97;4976391;28;20027;-85
2022/10/03 00:37:58;;;;;;;10.70;3.47;;;;;;;-148.88;100.00;76675.13;4978269;28;20029;-85
2022/10/03 00:40:35;;;;;;;12.38;3.05;;;;;;;-148.88;100.00;76677.16;4976734;28;20397;-84
2022/10/03 00:43:10;;;;;;;23.15;4.18;;;;;;;-148.88;100.00;76687.31;4976777;28;20026;-84
2022/10/03 00:45:46;;;;;;;19.33;3.95;;;;;;;-148.88;100.00;76675.13;4976551;28;20394;-85
2022/10/03 00:48:48;;;;;;;13.82;3.50;;;;;;;-148.88;100.00;76687.31;4978782;28;20031;-85
2022/10/03 00:51:38;;;;;;;12.65;3.42;;;;;;;-148.88;100.00;76687.31;4977008;28;20126;-84
2022/10/03 00:54:35;;;;;;;13.63;3.42;;;;;;;-148.88;100.00;76689.34;4976729;28;20027;-85
2022/10/03 00:57:16;;;;;;;14.63;3.53;;;;;;;-148.88;100.00;76687.31;4977396;28;20034;-84
2022/10/03 01:00:18;;;;;;;18.50;3.50;;;;;;;-148.88;100.00;76697.47;4976672;28;20415;-85
2022/10/03 01:03:05;;;;;;;17.77;3.70;;;;;;;-148.88;100.00;76693.41;4976665;28;20042;-84
2022/10/03 01:06:08;;;;;;;23.05;4.50;;;;;;;-148.88;100.00;76705.59;4976603;28;20034;-85
2022/10/03 01:08:53;;;;;;;16.70;3.30;;;;;;;-148.88;100.00;76691.38;4972582;28;20038;-85
2022/10/03 01:11:59;;;;;;;17.08;4.13;;;;;;;-148.88;100.00;76707.63;4976167;28;20121;-85
2022/10/03 01:14:33;;;;;;;19.65;3.92;;;;;;;-148.88;100.00;76709.66;4977434;28;20022;-85
2022/10/03 01:17:04;;;;;;;17.52;3.80;;;;;;;-148.88;100.00;76711.69;4977689;28;20027;-84
2022/10/03 01:19:32;;;;;;;13.68;3.58;;;;;;;-148.88;100.00;76715.75;4976185;28;20466;-85
2022/10/03 01:22:22;;;;;;;20.15;3.38;;;;;;;-148.88;100.00;76723.88;4976486;28;20054;-85
2022/10/03 01:25:06;;;;;;;16.33;3.60;;;;;;;-148.88;100.00;76719.81;4976794;28;20037;-85
2022/10/03 01:30:46;;;;;;;15.02;3.60;;;;;;;-148.88;100.00;76736.06;4977631;28;20567;-85
2022/10/03 01:33:27;;;;;;;15.40;3.58;;;;;;;-148.88;100.00;76744.19;4977390;28;20401;-85
2022/10/03 01:36:02;;;;;;;19.98;4.18;;;;;;;-148.88;100.00;76744.19;4976362;28;20493;-85
2022/10/03 01:38:39;;;;;;;15.90;3.88;;;;;;;-148.88;100.00;76748.25;4976326;28;20061;-84
2022/10/03 01:41:23;;;;;;;15.95;3.25;;;;;;;-148.88;100.00;76750.28;4976612;28;20081;-84
2022/10/03 01:44:11;;;;;;;11.52;3.42;;;;;;;-148.88;100.00;76758.41;4975916;28;20508;-85
2022/10/03 01:47:17;;;;;;;15.77;3.50;;;;;;;-148.88;100.00;76774.69;4977228;28;20027;-85
2022/10/03 01:50:06;;;;;;;17.73;4.43;;;;;;;-148.88;100.00;76772.66;4970590;28;20039;-84
2022/10/03 01:53:03;;;;;;;13.10;3.47;;;;;;;-148.88;100.00;76778.75;4975838;28;20026;-85
2022/10/03 01:56:06;;;;;;;19.50;4.30;;;;;;;-148.88;100.00;76788.91;4977200;28;20392;-85
2022/10/03 01:58:56;;;;;;;18.38;3.80;;;;;;;-148.88;100.00;76797.03;4975659;28;20027;-84
2022/10/03 02:01:38;;;;;;;17.23;3.92;;;;;;;-148.88;100.00;76788.91;4975406;28;20481;-85
2022/10/03 02:04:23;;;;;;;12.43;3.45;;;;;;;-148.88;100.00;76790.94;4977060;28;20030;-84
2022/10/03 02:06:57;;;;;;;12.18;3.60;;;;;;;-148.88;100.00;76792.97;4977258;28;20389;-85
2022/10/03 02:09:47;;;;;;;15.05;3.95;;;;;;;-148.88;100.00;76797.03;4976664;28;20019;-85
2022/10/03 02:12:25;;;;;;;15.70;4.10;;;;;;;-148.88;100.00;76795.00;4977331;28;20127;-85
2022/10/03 02:14:59;;;;;;;14.07;3.95;;;;;;;-148.88;100.00;76803.13;4975985;28;20031;-83
2022/10/03 02:17:29;;;;;;;;;;;;;;;-148.88;100.00;76813.28;4975995;28;20027;-83
2022/10/03 02:20:03;;;;;;;18.42;4.00;;;;;;;-148.88;100.00;76811.25;4975886;28;19928;-85
2022/10/03 02:22:44;;;;;;;15.07;3.78;;;;;;;-148.88;100.00;76817.34;4976432;28;20027;-85
2022/10/03 02:25:30;;;;;;;10.95;2.50;;;;;;;-148.88;100.00;76825.47;4975325;28;20023;-83
2022/10/03 02:28:12;;;;;;;12.10;3.95;;;;;;;-148.88;100.00;76829.53;4977379;28;20019;-85
2022/10/03 02:30:56;;;;;;;20.17;4.00;;;;;;;-148.88;100.00;76821.41;4975462;28;20026;-85
2022/10/03 02:33:46;;;;;;;20.52;3.85;;;;;;;-148.88;100.00;76825.47;4976181;28;20026;-84
2022/10/03 02:36:23;;;;;;;10.93;3.40;;;;;;;-148.88;100.00;76827.50;4974943;28;20023;-85
2022/10/03 02:39:24;;;;;;;18.33;4.65;;;;;;;-148.88;100.00;76825.47;4976111;28;20552;-85
2022/10/03 02:42:14;;;;;;;11.82;3.40;;;;;;;-148.88;100.00;76825.47;4976571;28;20027;-85
2022/10/03 02:44:46;;;;;;;15.98;3.92;;;;;;;-148.88;100.00;76825.47;4975969;28;20023;-85
2022/10/03 02:47:42;;;;;;;13.20;4.15;;;;;;;-148.88;100.00;76817.34;4976402;28;20029;-85
2022/10/03 02:50:51;;;;;;;18.98;4.20;;;;;;;-148.88;100.00;76829.53;4975374;28;20030;-84
2022/10/03 02:53:40;;;;;;;18.50;4.10;;;;;;;-148.88;100.00;76825.47;4976210;28;20030;-85
2022/10/03 02:56:24;;;;;;;20.55;4.40;;;;;;;-148.88;100.00;76827.50;4975095;28;20397;-85
2022/10/03 02:59:13;;;;;;;14.90;3.97;;;;;;;-148.88;100.00;76833.59;4976212;28;20023;-85
2022/10/03 03:01:51;;;;;;;14.75;4.32;;;;;;;-148.88;100.00;76837.66;4976042;28;20023;-85
2022/10/03 03:04:36;;;;;;;21.42;5.13;;;;;;;-148.88;100.00;76831.56;4974763;28;20532;-85
2022/10/03 03:07:21;;;;;;;16.05;4.35;;;;;;;-148.88;100.00;76837.66;4976367;28;20027;-85
2022/10/03 03:10:07;;;;;;;20.02;4.30;;;;;;;-148.88;100.00;76837.66;4974747;28;20027;-86
2022/10/03 03:12:47;;;;;;;16.35;3.97;;;;;;;-148.88;100.00;76839.69;4974524;28;20049;-85
2022/10/03 03:15:27;;;;;;;16.48;4.38;;;;;;;-148.88;100.00;76839.69;4975831;28;20054;-85
2022/10/03 03:18:14;;;;;;;18.05;4.22;;;;;;;-148.88;100.00;76843.75;4975620;28;20035;-84
2022/10/03 03:21:07;;;;;;;17.88;4.32;;;;;;;-148.88;100.00;76847.81;4974715;28;20121;-85
2022/10/03 03:23:55;;;;;;;16.63;4.40;;;;;;;-148.88;100.00;76845.78;4976430;28;20038;-85
2022/10/03 03:26:45;;;;;;;20.10;4.60;;;;;;;-148.88;100.00;76845.78;4985466;28;20478;-85
2022/10/03 03:29:14;;;;;;;19.27;4.60;;;;;;;-148.88;100.00;76841.72;4975206;28;20034;-85
2022/10/03 03:32:06;;;;;;;18.02;4.38;;;;;;;-148.88;100.00;76849.84;4975185;28;20026;-85
2022/10/03 03:34:58;;;;;;;16.98;4.28;;;;;;;-148.88;100.00;76849.84;4972853;28;20066;-85
2022/10/03 03:37:47;;;;;;;21.15;5.18;;;;;;;-148.88;100.00;76853.91;4973806;28;20022;-85
2022/10/03 03:40:28;;;;;;;9.32;3.00;;;;;;;-148.88;100.00;76860.00;4975662;28;20485;-85
2022/10/03 03:43:01;;;;;;;10.20;2.47;;;;;;;-148.88;100.00;76874.22;4974997;28;20035;-85
2022/10/03 03:45:53;;;;;;;12.23;3.30;;;;;;;-148.88;100.00;76870.16;4975106;28;20023;-85
2022/10/03 03:48:47;;;;;;;16.17;4.70;;;;;;;-148.88;100.00;76878.28;4976143;28;20026;-85
2022/10/03 03:51:21;;;;;;;10.15;2.60;;;;;;;-148.88;100.00;76884.38;4974395;28;20026;-85
2022/10/03 03:53:50;;;;;;;20.80;4.47;;;;;;;-148.88;100.00;76890.50;4974139;28;20023;-84
2022/10/03 03:56:34;;;;;;;18.42;5.43;;;;;;;-148.88;100.00;76886.41;4974330;28;20034;-85
2022/10/03 03:59:06;;;;;;;;;;;;;;;-148.88;100.00;76884.38;4974785;28;20041;-85
2022/10/03 04:02:05;;;;;;;11.07;2.42;;;;;;;-148.88;100.00;76898.63;4974651;28;20284;-86
2022/10/03 04:04:41;;;;;;;17.35;5.63;;;;;;;-148.88;100.00;76890.50;4991298;28;20054;-86
2022/10/03 04:07:38;;;;;;;22.67;6.32;;;;;;;-148.88;100.00;76906.75;4976074;28;20026;-85
2022/10/03 04:10:28;;;;;;;15.55;5.80;;;;;;;-148.88;100.00;76910.81;4976771;28;20019;-85
2022/10/03 04:13:08;;;;;;;18.02;6.00;;;;;;;-148.88;100.00;76906.75;4974903;28;20023;-85
2022/10/03 04:15:55;;;;;;;17.70;6.47;;;;;;;-148.88;100.00;76904.72;4974989;28;20027;-86
2022/10/03 04:21:23;;;;;;;15.60;6.35;;;;;;;-148.88;100.00;76912.84;4975918;28;20037;-85
2022/10/03 04:24:18;;;;;;;10.60;3.33;;;;;;;-148.88;100.00;76916.91;4975160;28;20116;-85
2022/10/03 04:27:02;;;;;;;21.23;5.07;;;;;;;-148.88;100.00;76937.22;4989798;28;20030;-85
2022/10/03 04:29:41;;;;;;;;;;;;;;;-148.88;100.00;76939.25;4974892;28;20019;-85
2022/10/03 04:32:25;;;;;;;11.80;2.90;;;;;;;-148.88;100.00;76937.22;4973766;28;19909;-83
2022/10/03 04:35:28;;;;;;;10.75;3.65;;;;;;;-148.88;100.00;76955.50;4973320;28;20121;-85
2022/10/03 04:38:35;;;;;;;13.55;5.45;;;;;;;-148.88;100.00;76963.63;4973668;28;20031;-85
2022/10/03 04:41:11;;;;;;;16.73;5.97;;;;;;;-148.88;100.00;76967.69;4970744;28;20043;-85
2022/10/03 04:43:51;;;;;;;17.67;6.80;;;;;;;-148.88;100.00;76971.75;4973924;28;20023;-85
2022/10/03 04:46:45;;;;;;;19.63;7.15;;;;;;;-148.88;100.00;76975.81;4973941;28;20489;-85
2022/10/03 04:49:15;;;;;;;;;;;;;;;-148.88;100.00;76975.81;4975566;28;20038;-85
2022/10/03 04:51:59;;;;;;;15.68;7.50;;;;;;;-148.88;100.00;76981.91;4978730;28;19948;-85
2022/10/03 04:54:46;;;;;;;9.93;4.30;;;;;;;-148.88;100.00;76983.94;4977860;28;20027;-85
2022/10/03 04:57:44;;;;;;;16.52;7.47;;;;;;;-148.88;100.00;76979.88;4978202;28;20475;-85
2022/10/03 05:00:28;;;;;;;13.15;4.40;;;;;;;-148.88;100.00;76979.88;4977441;28;20097;-86
2022/10/03 05:02:57;;;;;;;20.15;8.18;;;;;;;-148.88;100.00;76985.97;4977486;28;20031;-84
2022/10/03 05:05:37;;;;;;;13.32;4.57;;;;;;;-148.88;100.00;76977.84;4978869;28;20054;-86
2022/10/03 05:08:21;;;;;;;14.93;7.75;;;;;;;-148.88;100.00;76969.72;4977900;28;20023;-84
2022/10/03 05:10:59;;;;;;;20.08;8.27;;;;;;;-148.88;100.00;76971.75;4977693;28;20085;-85
2022/10/03 05:13:44;;;;;;;17.95;4.43;;;;;;;-148.88;100.00;76979.88;4977629;28;20130;-84
2022/10/03 05:16:41;;;;;;;12.63;4.30;;;;;;;-148.88;100.00;76973.78;4978689;28;20027;-85
2022/10/03 05:19:16;;;;;;;15.93;8.57;;;;;;;-148.88;100.00;76979.88;4977180;28;20027;-84
2022/10/03 05:21:44;;;;;;;16.58;8.05;;;;;;;-148.88;100.00;76985.97;4992279;23;20051;-72
2022/10/03 05:24:44;;;;;;;16.67;8.55;;;;;;;-148.88;100.00;76996.13;4957179;28;20085;-72
2022/10/03 05:27:32;;;;;;;13.30;4.60;;;;;;;-148.88;100.00;76994.09;4971357;28;20024;-73
2022/10/03 05:30:27;;;;;;;17.30;5.10;;;;;;;-148.88;100.00;77000.19;4956574;28;20034;-72
2022/10/03 05:33:04;;;;;;;15.45;5.28;;;;;;;-148.88;100.00;76998.16;4956572;28;20027;-72
2022/10/03 05:36:10;;;;;;;17.45;8.85;;;;;;;-148.88;100.00;76998.16;4956367;28;20422;-72
2022/10/03 05:39:21;;;;;;;14.05;4.70;;;;;;;-148.88;100.00;77006.31;4956406;28;20023;-72
2022/10/03 05:42:04;;;;;;;9.00;4.07;;;;;;;-148.88;100.00;76998.16;4956504;28;20028;-72
2022/10/03 05:44:55;;;;;;;16.20;9.27;;;;;;;-148.88;100.00;77004.25;4956536;28;20023;-72
2022/10/03 05:47:47;;;;;;;10.25;4.63;;;;;;;-148.88;100.00;77008.34;4964173;28;20035;-72
2022/10/03 05:50:54;;;;;;;15.25;5.30;;;;;;;-148.88;100.00;76996.13;4956623;28;20028;-73
2022/10/03 05:53:25;;;;;;;11.25;4.90;;;;;;;-148.88;100.00;77002.22;4964597;28;20574;-72
2022/10/03 05:56:08;;;;;;;15.27;5.70;;;;;;;-148.88;100.00;76998.16;4956581;28;20390;-72
2022/10/03 05:58:47;;;;;;;18.50;10.15;;;;;;;-148.88;100.00;76992.06;4954965;29;20027;-72
2022/10/03 06:01:33;;;;;;;23.02;10.10;;;;;;;-148.88;100.00;76992.06;4955359;28;20042;-72
2022/10/03 06:04:26;;;;;;;12.15;5.22;;;;;;;-148.88;100.00;76992.06;4956734;28;20520;-73
2022/10/03 06:07:26;;;;;;;17.42;5.00;;;;;;;-148.88;100.00;76994.09;4956150;28;20038;-72
2022/10/03 06:10:32;;;;;;;18.33;9.98;;;;;;;-148.88;100.00;76979.88;4956099;28;20474;-72
2022/10/03 06:13:18;;;;;;;13.10;5.35;;;;;;;-148.88;100.00;76975.81;4956030;28;20434;-72
2022/10/03 06:16:25;;;;;;;13.63;5.78;;;;;;;-148.88;100.00;76969.72;4955916;28;20027;-72
2022/10/03 06:19:22;;;;;;;15.52;8.75;;;;;;;-148.88;100.00;76973.78;4955720;28;20035;-72
2022/10/03 06:22:25;;;;;;;19.08;9.77;;;;;;;-148.88;100.00;76979.88;4954336;28;20038;-73
2022/10/03 06:25:14;;;;;;;13.95;5.72;;;;;;;-148.88;100.00;76971.75;4955735;28;20027;-73
2022/10/03 06:28:07;;;;;;;21.98;5.97;;;;;;;-148.88;100.00;76975.81;4955969;28;20150;-72
2022/10/03 06:30:57;;;;;;;13.77;5.53;;;;;;;-148.88;100.00;76969.72;4955701;28;20054;-72
2022/10/03 06:33:25;;;;;;;17.05;9.85;;;;;;;-148.88;100.00;76963.63;4956035;28;20110;-72
2022/10/03 06:36:25;;;;;;;17.38;9.45;;;;;;;-148.88;100.00;76949.41;4955512;28;20486;-72
2022/10/03 06:39:34;;;;;;;17.17;9.48;;;;;;;-148.88;100.00;76949.41;4954597;29;20020;-73
2022/10/03 06:42:18;;;;;;;15.18;8.60;;;;;;;-148.88;100.00;76955.50;4954544;28;20117;-72
2022/10/03 06:45:02;;;;;;;;;;;;;;;-148.88;100.00;76955.50;4956339;28;20478;-73
2022/10/03 06:47:51;;;;;;;15.98;9.15;;;;;;;-148.88;100.00;76947.38;4955829;29;19961;-75
2022/10/03 06:50:45;;;;;;;19.42;8.88;;;;;;;-148.88;100.00;76957.53;4955915;28;20471;-72
2022/10/03 06:53:19;;;;;;;19.10;10.23;;;;;;;-148.88;100.00;76949.41;4954555;29;20026;-72
2022/10/03 06:55:57;;;;;;;15.27;6.80;;;;;;;-148.88;100.00;76947.38;4955617;28;20394;-72
2022/10/03 06:59:00;;;;;;;19.92;9.68;;;;;;;-148.88;100.00;76947.38;4955518;28;20022;-72
2022/10/03 07:02:14;;;;;;;15.77;8.60;;;;;;;-148.88;100.00;76951.44;4954306;28;20031;-72
2022/10/03 07:04:54;;;;;;;21.42;9.07;;;;;;;-148.88;100.00;76939.25;4959181;28;20040;-72
2022/10/03 07:07:42;;;;;;;12.82;4.40;;;;;;;-148.88;100.00;76937.22;4955432;28;20486;-72
2022/10/03 07:10:35;;;;;;;15.77;4.80;;;;;;;-148.88;100.00;76931.13;4955768;28;20110;-72
2022/10/03 07:13:06;;;;;;;19.15;8.02;;;;;;;-148.88;100.00;76918.94;4955542;28;20031;-72
2022/10/03 07:15:51;;;;;;;11.75;4.35;;;;;;;-148.88;100.00;76914.88;4955263;28;20050;-72
2022/10/03 07:18:44;;;;;;;16.98;8.40;;;;;;;-148.88;100.00;76906.75;4954057;29;20023;-72
2022/10/03 07:21:30;;;;;;;13.35;7.20;;;;;;;-148.88;100.00;76910.81;4955148;28;20074;-72
2022/10/03 07:24:04;;;;;;;14.80;7.80;;;;;;;-148.88;100.00;76896.59;4954028;28;20086;-72
2022/10/03 07:27:15;;;;;;;17.70;8.20;;;;;;;-148.88;100.00;76882.34;4955137;28;20028;-72
2022/10/03 07:30:02;;;;;;;16.55;7.00;;;;;;;-148.88;100.00;76862.03;4955694;28;20086;-72
2022/10/03 07:32:58;;;;;;;15.70;7.13;;;;;;;-148.88;100.00;76857.97;4980376;23;20074;-73
2022/10/03 07:38:57;;;;;;;15.82;7.43;;;;;;;-148.88;100.00;76845.78;4974358;28;20062;-73
2022/10/03 07:41:43;;;;;;;15.80;6.60;;;;;;;-148.88;100.00;76843.75;4974401;28;20031;-72
2022/10/03 07:44:28;;;;;;;15.35;6.20;;;;;;;-148.88;100.00;76849.84;4963555;28;20042;-73
2022/10/03 07:47:12;;;;;;;15.18;5.60;;;;;;;-148.88;100.00;76845.78;4974302;28;20537;-72
2022/10/03 07:49:43;;;;;;;;;;;;;;;-148.88;100.00;76829.53;4974981;28;20066;-73
2022/10/03 07:52:38;;;;;;;10.00;3.47;;;;;;;-148.88;100.00;76829.53;4974149;28;19910;-72
2022/10/03 07:55:40;;;;;;;17.83;5.97;;;;;;;-148.88;100.00;76821.41;4974500;28;20027;-72
2022/10/03 07:58:18;;;;;;;10.60;5.22;;;;;;;-148.88;100.00;76813.28;4974269;28;20035;-72
2022/10/03 08:01:08;;;;;;;12.57;5.65;;;;;;;-148.88;100.00;76805.16;4974292;28;20031;-73
2022/10/03 08:04:15;;;;;;;13.60;5.13;;;;;;;-148.88;100.00;76809.22;4958016;28;20030;-72
2022/10/03 08:06:44;;;;;;;16.73;5.45;;;;;;;-148.88;100.00;76801.09;4974053;28;20041;-73
2022/10/03 08:09:40;;;;;;;14.88;3.45;;;;;;;-148.88;100.00;76788.91;4973995;28;20054;-72
2022/10/03 08:12:14;;;;;;;11.82;4.95;;;;;;;-148.88;100.00;76782.81;4973930;28;20034;-73
2022/10/03 08:14:47;;;;;;;17.60;5.05;;;;;;;-148.88;100.00;76774.69;4974223;28;20023;-73
2022/10/03 08:17:54;;;;;;;11.60;4.30;;;;;;;-148.88;100.00;76760.44;4974069;28;20082;-72
2022/10/03 08:20:34;;;;;;;15.10;5.00;;;;;;;-148.88;100.00;76756.41;4974083;28;20252;-72
2022/10/03 08:22:59;;;;;;;12.82;5.32;;;;;;;-148.88;100.00;76746.22;4974141;28;20022;-73
2022/10/03 08:26:02;;;;;;;12.25;4.57;;;;;;;-148.88;100.00;76732.00;4977980;28;20033;-72
2022/10/03 08:28:55;;;;;;;16.77;4.75;;;;;;;-148.88;100.00;76727.94;4976261;28;20030;-73
2022/10/03 08:31:48;;;;;;;12.65;4.75;;;;;;;-148.88;100.00;76717.78;4977601;28;20049;-74
2022/10/03 08:34:25;;;;;;;10.90;4.97;;;;;;;-148.88;100.00;76711.69;4977803;28;20050;-73
2022/10/03 08:37:02;;;;;;;13.93;4.93;;;;;;;-148.88;100.00;76711.69;4977453;28;20034;-73
2022/10/03 08:39:59;;;;;;;13.95;4.95;;;;;;;-148.88;100.00;76709.66;4977684;28;20054;-73
2022/10/03 08:43:04;;;;;;;12.68;5.18;;;;;;;-148.88;100.00;76701.53;4977337;28;20019;-73
2022/10/03 08:45:49;;;;;;;8.45;4.15;;;;;;;-148.88;100.00;76697.47;4977266;28;20054;-73
2022/10/03 08:48:40;;;;;;;9.70;4.05;;;;;;;-148.88;100.00;76699.50;4977547;28;20382;-73
2022/10/03 08:51:42;;;;;;;12.23;4.25;;;;;;;-148.88;100.00;76689.34;4977080;28;20428;-72
2022/10/03 08:54:34;;;;;;;9.88;3.90;;;;;;;-148.88;100.00;76687.31;4977444;28;20069;-72
2022/10/03 08:57:33;;;;;;;8.23;3.97;;;;;;;-148.88;100.00;76673.09;4975773;28;20029;-72
2022/10/03 09:00:14;;;;;;;14.35;4.55;;;;;;;-148.88;100.00;76662.94;4977060;28;20023;-72
2022/10/03 09:02:42;;;;;;;10.25;3.90;;;;;;;-148.88;100.00;76642.63;4977290;28;20038;-73
2022/10/03 09:05:45;;;;;;;9.45;3.45;;;;;;;-148.88;100.00;76634.50;4976858;28;20362;-72
2022/10/03 09:08:55;;;;;;;9.23;3.67;;;;;;;-148.88;100.00;76630.44;4976974;28;20030;-74
2022/10/03 09:11:59;;;;;;;12.63;4.13;;;;;;;-148.88;100.00;76626.38;4975849;28;20026;-73
2022/10/03 09:14:30;;;;;;;;;;;;;;;-148.88;100.00;76614.19;4973328;28;20050;-73
2022/10/03 09:17:20;;;;;;;12.57;3.35;;;;;;;-148.88;100.00;76610.13;4976704;28;20020;-73
2022/10/03 09:20:19;;;;;;;7.45;3.45;;;;;;;-148.88;100.00;76589.78;4975852;28;20037;-73
2022/10/03 09:22:57;;;;;;;8.27;3.83;;;;;;;-148.88;100.00;76559.31;4977225;28;20466;-73
2022/10/03 09:25:36;;;;;;;9.95;3.88;;;;;;;-148.88;100.00;76502.44;4976941;28;20049;-72
2022/10/03 09:28:11;;;;;;;12.07;3.50;;;;;;;-148.88;98.24;76484.16;4976545;28;20023;-72
2022/10/03 09:30:55;;;;;;;10.68;3.55;;;;;;;-148.88;96.87;76488.22;4976536;28;20031;-72
2022/10/03 09:33:54;;;;;;;11.65;4.07;;;;;;;-148.88;95.99;76445.56;4976307;28;20053;-72
2022/10/03 09:36:44;;;;;;;6.63;3.50;;;;;;;-148.88;94.60;76443.53;4974990;28;20397;-73
2022/10/03 09:39:21;;;;;;;9.27;3.60;;;;;;;-148.88;94.52;76467.91;4976609;28;20050;-73
2022/10/03 09:41:49;;;;;;;10.93;3.88;;;;;;;-148.88;94.07;76459.78;4977076;28;20045;-73
2022/10/03 09:44:17;;;;;;;11.88;4.30;;;;;;;-148.88;93.65;76457.75;4976197;28;20512;-72
2022/10/03 09:47:22;;;;;;;9.73;3.63;;;;;;;-148.88;94.65;76455.72;4976418;28;20073;-73
2022/10/03 09:50:21;;;;;;;7.80;4.45;;;;;;;-148.88;94.52;76449.63;4976419;28;20110;-73
2022/10/03 09:53:17;;;;;;;16.65;4.60;;;;;;;-148.88;94.76;76447.59;4976311;28;20584;-73
2022/10/03 09:55:54;;;;;;;11.93;4.68;;;;;;;-148.88;94.82;76431.34;4974777;28;20038;-73
2022/10/03 09:58:39;;;;;;;9.73;4.05;;;;;;;-148.88;94.59;76427.28;4976141;28;20447;-73
2022/10/03 10:01:26;;;;;;;11.68;4.30;;;;;;;-148.88;94.63;76415.06;4974666;28;20027;-73
2022/10/03 10:04:22;;;;;;;12.18;4.28;;;;;;;-148.88;94.89;76415.06;4975965;28;20095;-73
2022/10/03 10:07:05;;;;;;;12.82;4.35;;;;;;;-148.88;94.19;76411.00;4975867;28;20022;-72
2022/10/03 10:09:51;;;;;;;11.63;4.00;;;;;;;-148.88;93.12;76374.44;4974500;28;20366;-73
2022/10/03 10:12:47;;;;;;;12.13;4.60;;;;;;;-148.88;93.38;76392.72;4975644;28;20446;-73
2022/10/03 10:15:28;;;;;;;9.35;4.85;;;;;;;-148.88;94.54;76362.25;4975642;28;20026;-73
2022/10/03 10:18:18;;;;;;;13.07;4.72;;;;;;;-148.88;92.34;76358.19;4975911;28;20037;-73
2022/10/03 10:21:05;;;;;;;10.05;3.83;;;;;;;-148.88;91.34;76313.50;4975688;28;20058;-73
2022/10/03 10:23:36;;;;;;;8.95;3.75;;;;;;;-148.88;90.86;76315.53;4975864;28;20109;-74
2022/10/03 10:26:28;;;;;;;9.02;3.38;;;;;;;-148.88;88.63;76293.19;4975509;28;20019;-73
2022/10/03 10:29:46;;;;;;;10.27;4.20;;;;;;;-148.88;89.72;76317.56;4965706;28;20402;-73
2022/10/03 10:35:45;;;;;;;12.68;3.65;;;;;;;-148.88;91.31;76325.69;4975508;28;20041;-73
2022/10/03 10:38:24;;;;;;;8.55;3.13;;;;;;;-148.88;88.16;76256.63;4975196;28;20022;-72
2022/10/03 10:41:11;;;;;;;8.65;2.40;;;;;;;-148.88;86.56;76230.22;4975183;28;20034;-72
2022/10/03 10:43:56;;;;;;;11.30;3.45;;;;;;;-148.88;87.28;76244.44;4975460;28;20034;-72
2022/10/03 10:46:54;;;;;;;9.93;3.88;;;;;;;-148.88;89.17;76254.59;4974702;28;20034;-71
2022/10/03 10:49:52;;;;;;;8.90;3.67;;;;;;;-148.88;87.89;76226.16;4975199;28;20030;-72
2022/10/03 10:52:41;;;;;;;9.15;3.25;;;;;;;-148.88;87.11;76224.13;4974931;28;20029;-70
2022/10/03 10:55:44;;;;;;;13.90;5.10;;;;;;;-148.88;88.46;76211.94;4975180;28;20030;-70
2022/10/03 10:58:48;;;;;;;11.07;4.40;;;;;;;-148.88;86.41;76167.25;4975089;28;20026;-70
2022/10/03 11:01:19;;;;;;;8.20;3.40;;;;;;;-148.88;83.29;76177.41;4974264;28;20085;-70
2022/10/03 11:04:09;;;;;;;8.13;3.15;;;;;;;-148.88;85.36;76179.44;4974739;28;20078;-70
2022/10/03 11:07:16;;;;;;;9.43;4.30;;;;;;;-148.88;86.66;76161.16;4975103;28;20026;-70
2022/10/03 11:09:59;;;;;;;9.43;3.17;;;;;;;-148.88;85.14;76159.13;4966545;28;20089;-70
2022/10/03 11:12:55;;;;;;;9.75;2.85;;;;;;;-148.88;83.25;76163.19;4974711;28;20031;-70
2022/10/03 11:15:46;;;;;;;7.30;2.53;;;;;;;-148.88;82.66;76179.44;4973568;28;20077;-70
2022/10/03 11:19:01;;;;;;;8.90;2.30;;;;;;;-148.88;80.75;76189.59;4974830;28;20121;-70
2022/10/03 11:21:42;;;;;;;10.25;2.33;;;;;;;-148.88;80.65;76195.69;5000842;23;20070;-85
2022/10/03 11:24:42;;;;;;;6.95;2.22;;;;;;;-148.88;82.99;76195.69;4977972;28;20076;-85
2022/10/03 11:27:41;;;;;;;9.40;2.72;;;;;;;-148.88;84.56;76220.06;4978744;28;20027;-86
2022/10/03 11:30:42;;;;;;;8.45;2.30;;;;;;;-148.88;77.39;76240.38;4978668;28;20481;-86
2022/10/03 11:33:35;;;;;;;6.55;1.55;;;;;;;-148.88;75.58;76248.50;4976352;28;20033;-86
2022/10/03 11:36:29;;;;;;;5.40;1.30;;;;;;;-148.88;77.06;76226.16;4980099;28;20027;-86
2022/10/03 11:39:05;;;;;;;;;;;;;;;-148.88;75.11;76191.63;4980421;28;20019;-85
2022/10/03 11:41:46;;;;;;;9.77;1.83;;;;;;;-148.88;73.30;76177.41;4979192;28;19957;-84
2022/10/03 11:44:20;;;;;;;6.82;1.30;;;;;;;-148.88;73.52;76183.50;4979413;28;20113;-86
2022/10/03 11:46:57;;;;;;;8.63;1.58;;;;;;;-148.88;71.15;76130.69;4980213;28;20023;-86
2022/10/03 11:49:43;;;;;;;5.90;1.38;;;;;;;-148.88;70.71;76159.13;4978504;28;20030;-86
2022/10/03 11:52:20;;;;;;;7.53;1.35;;;;;;;-148.88;72.00;76185.53;4976539;28;20026;-85
2022/10/03 11:54:50;;;;;;;7.53;1.50;;;;;;;-148.88;71.25;76195.69;4974694;28;20409;-86
2022/10/03 11:57:32;;;;;;;7.13;1.67;;;;;;;-148.88;71.97;76207.88;4977210;28;20397;-86
2022/10/03 12:00:11;;;;;;;5.60;1.15;;;;;;;-148.88;73.09;76224.13;4988424;28;20098;-88
2022/10/03 12:03:13;;;;;;;9.90;1.30;;;;;;;-148.88;73.33;76211.94;4978930;28;20478;-87
2022/10/03 12:09:16;;;;;;;7.53;1.58;;;;;;;-148.88;72.44;76165.22;4980861;28;20054;-87
2022/10/03 12:11:55;;;;;;;8.13;1.90;;;;;;;-148.88;71.91;76148.97;4978942;28;20109;-86
2022/10/03 12:14:27;;;;;;;7.63;1.45;;;;;;;-148.88;71.90;76136.78;4978991;28;20050;-85
2022/10/03 12:17:16;;;;;;;6.22;1.50;;;;;;;-148.88;72.22;76122.56;4977586;28;20035;-85
2022/10/03 12:20:23;;;;;;;4.13;1.10;;;;;;;-148.88;70.21;76118.47;4978764;28;20560;-83
2022/10/03 12:23:03;;;;;;;5.50;1.25;;;;;;;-148.88;70.45;76130.69;4977587;28;20034;-84
2022/10/03 12:25:39;;;;;;;5.80;1.30;;;;;;;-148.88;71.60;76122.56;4977524;28;20027;-85
2022/10/03 12:28:16;;;;;;;5.05;1.33;;;;;;;-148.88;70.93;76112.41;4977537;28;20033;-85
2022/10/03 12:31:05;;;;;;;5.07;1.27;;;;;;;-148.88;70.36;76110.34;4977120;28;20401;-86
2022/10/03 12:33:48;;;;;;;7.35;1.63;;;;;;;-148.88;73.10;76144.91;4977521;28;20031;-86
2022/10/03 12:36:22;;;;;;;6.95;1.52;;;;;;;-148.88;73.10;76144.91;4978013;28;20145;-84
2022/10/03 12:38:48;;;;;;;8.48;1.77;;;;;;;-148.88;73.09;76122.56;4978621;28;20162;-85
2022/10/03 12:41:20;;;;;;;7.25;1.30;;;;;;;-148.88;72.12;76114.41;4978493;28;20037;-85
2022/10/03 12:44:04;;;;;;;6.28;1.65;;;;;;;-148.88;73.22;76106.28;4977646;28;20030;-85
2022/10/03 12:47:10;;;;;;;8.52;1.90;;;;;;;-148.88;73.94;76098.16;4977987;28;20031;-85
2022/10/03 12:49:38;;;;;;;7.35;1.90;;;;;;;-148.88;72.00;76106.28;4987901;28;20049;-85